Johnston, Mississippi
Current Conditions -  °F | °C
As of 1:53 AM on Friday 31 Oct 2014 (Local Time) from KMCB Reporting Station
Clear Clear  
Wind Chill: 48°   Ceiling: Unl
Heat Index: 48°   Visibility: 10mi
Dew Point: 43°   Wind: 3mph
Humidity: 83%   Direction: 330°NNW
Pressure: 30.06"   Gusts: NA
Location:  31.2993°N, 90.4958°W
Report Text: KMCB 310653Z AUTO 33003KT 10SM CLR 09/06 A3006 RMK AO2 SLP176 T00890061 PWINO $
Loading
Personal Weather Stations






























Interactive Weather Map
Tropical Storm Tracking
New forecast layout! Learn more

10-Day Weather Forecast

Advertisements
Track Severe Weather on mobile